createdAt,value
2022-08-21T00:03:33.957Z,100144.38
2022-08-21T00:08:35.546Z,100141.84
2022-08-21T00:13:37.589Z,100140.00
2022-08-21T00:18:39.405Z,100142.69
2022-08-21T00:23:41.149Z,100151.50
2022-08-21T00:28:42.740Z,100143.59
2022-08-21T00:33:44.803Z,100137.72
2022-08-21T00:38:46.418Z,100135.84
2022-08-21T00:43:48.012Z,100141.91
2022-08-21T00:48:49.580Z,100142.13
2022-08-21T00:53:54.959Z,100136.03
2022-08-21T00:58:57.186Z,100138.97
2022-08-21T01:03:58.902Z,100143.34
2022-08-21T01:09:00.781Z,100146.50
2022-08-21T01:14:03.327Z,100149.88
2022-08-21T01:19:05.386Z,100148.84
2022-08-21T01:24:07.186Z,100159.94
2022-08-21T01:29:08.738Z,100150.78
2022-08-21T01:34:13.249Z,100157.47
2022-08-21T01:39:15.465Z,100152.84
2022-08-21T01:44:17.326Z,100153.91
2022-08-21T01:49:19.121Z,100158.31
2022-08-21T01:54:20.957Z,100163.06
2022-08-21T01:59:24.462Z,100162.88
2022-08-21T02:04:26.112Z,100160.16
2022-08-21T02:09:27.923Z,100157.03
2022-08-21T02:14:32.736Z,100160.41
2022-08-21T02:19:38.351Z,100149.09
2022-08-21T02:24:54.656Z,100145.56
2022-08-21T02:29:57.921Z,100142.84
2022-08-21T02:34:59.513Z,100138.88
2022-08-21T02:40:02.259Z,100144.91
2022-08-21T02:45:04.605Z,100152.84
2022-08-21T02:50:07.017Z,100138.69
2022-08-21T02:55:08.591Z,100141.34
2022-08-21T03:00:12.877Z,100137.19
2022-08-21T03:05:16.016Z,100132.38
2022-08-21T03:10:17.649Z,100130.09
2022-08-21T03:15:21.069Z,100130.09
2022-08-21T03:20:29.606Z,100132.81
2022-08-21T03:25:40.402Z,100130.72
2022-08-21T03:30:43.854Z,100127.78
2022-08-21T03:35:47.655Z,100153.69
2022-08-21T03:40:49.300Z,100162.88
2022-08-21T03:45:51.029Z,100158.47
2022-08-21T03:50:54.317Z,100156.59
2022-08-21T03:55:55.894Z,100161.63
2022-08-21T04:01:00.432Z,100165.38
2022-08-21T04:06:02.187Z,100168.50
2022-08-21T04:11:04.083Z,100161.63
2022-08-21T04:16:06.000Z,100161.63
2022-08-21T04:21:09.155Z,100172.91
2022-08-21T04:26:12.477Z,100171.84
2022-08-21T04:31:14.170Z,100165.38
2022-08-21T04:36:15.864Z,100174.78
2022-08-21T04:41:17.456Z,100166.66
2022-08-21T04:46:27.393Z,100165.63
2022-08-21T04:51:32.522Z,100169.78
2022-08-21T04:56:38.679Z,100173.09
2022-08-21T05:01:41.373Z,100179.41
2022-08-21T05:06:44.779Z,100190.47
2022-08-21T05:11:46.368Z,100201.28
2022-08-21T05:16:48.492Z,100185.22
2022-08-21T05:21:50.194Z,100189.63
2022-08-21T05:26:51.815Z,100186.91
2022-08-21T05:31:53.972Z,100195.06
2022-08-21T05:36:55.662Z,100193.34
2022-08-21T05:41:57.380Z,100194.63
2022-08-21T05:47:10.095Z,100200.66
2022-08-21T05:52:11.757Z,100201.94
2022-08-21T05:57:13.358Z,100191.84
2022-08-21T06:02:15.593Z,100193.34
2022-08-21T06:07:17.149Z,100188.69
2022-08-21T06:12:18.715Z,100201.63
2022-08-21T06:17:20.863Z,100211.91
2022-08-21T06:22:22.507Z,100210.88
2022-08-21T06:27:26.647Z,100209.19
2022-08-21T06:32:28.380Z,100199.72
2022-08-21T06:37:30.161Z,100194.25
2022-08-21T06:42:32.087Z,100196.97
2022-08-21T06:47:33.806Z,100191.06
2022-08-21T06:52:36.519Z,100197.56
2022-08-21T06:57:38.056Z,100199.59
2022-08-21T07:02:40.750Z,100210.66
2022-08-21T07:07:43.383Z,100212.34
2022-08-21T07:12:45.122Z,100209.84
2022-08-21T07:17:46.790Z,100200.16
2022-08-21T07:22:48.438Z,100203.66
2022-08-21T07:27:50.016Z,100197.69
2022-08-21T07:32:51.970Z,100199.31
2022-08-21T07:37:53.616Z,100195.75
2022-08-21T07:42:55.504Z,100209.72
2022-08-21T07:47:57.748Z,100223.31
2022-08-21T07:52:59.696Z,100226.28
2022-08-21T07:58:01.370Z,100221.75
2022-08-21T08:03:03.769Z,100228.72
2022-08-21T08:08:05.375Z,100232.41
2022-08-21T08:13:06.938Z,100237.25
2022-08-21T08:18:12.415Z,100234.53
2022-08-21T08:23:14.833Z,100237.69
2022-08-21T08:28:17.750Z,100235.81
2022-08-21T08:33:20.768Z,100238.31
2022-08-21T08:38:24.984Z,100238.59
2022-08-21T08:43:28.560Z,100239.94
2022-08-21T08:48:52.790Z,100243.50
2022-08-21T08:54:04.812Z,100246.34
2022-08-21T08:59:14.979Z,100250.44
2022-08-21T09:04:23.365Z,100252.94
2022-08-21T09:09:32.501Z,100251.19
2022-08-21T09:15:13.542Z,100244.06
2022-08-21T09:20:48.778Z,100241.81
2022-08-21T09:26:20.606Z,100236.34
2022-08-21T09:31:29.092Z,100220.25
2022-08-21T09:36:44.552Z,100225.03
2022-08-21T09:41:46.143Z,100222.84
2022-08-21T09:46:52.334Z,100228.88
2022-08-21T09:51:55.085Z,100229.53
2022-08-21T09:57:39.102Z,100222.97
2022-08-21T10:02:48.358Z,100225.63
2022-08-21T10:07:50.534Z,100225.56
2022-08-21T10:13:07.306Z,100223.63
2022-08-21T10:18:23.223Z,100223.59
2022-08-21T10:23:43.123Z,100227.97
2022-08-21T10:28:53.985Z,100236.00
2022-08-21T10:34:25.622Z,100229.63
2022-08-21T10:39:35.554Z,100228.13
2022-08-21T10:44:40.748Z,100222.13
2022-08-21T10:49:59.542Z,100222.84
2022-08-21T10:55:06.571Z,100219.16
2022-08-21T11:00:13.413Z,100229.50
2022-08-21T11:05:20.260Z,100224.84
2022-08-21T11:10:28.865Z,100228.91
2022-08-21T11:15:51.642Z,100224.94
2022-08-21T11:21:14.261Z,100216.16
2022-08-21T11:26:26.119Z,100221.84
2022-08-21T11:31:53.824Z,100220.22
2022-08-21T11:37:24.528Z,100224.75
2022-08-21T11:42:40.573Z,100222.63
2022-08-21T11:47:44.774Z,100209.88
2022-08-21T11:52:50.463Z,100204.00
2022-08-21T11:58:24.450Z,100209.75
2022-08-21T12:03:34.919Z,100206.47
2022-08-21T12:08:45.437Z,100206.47
2022-08-21T12:14:14.355Z,100204.56
2022-08-21T12:19:22.025Z,100199.28
2022-08-21T12:24:47.175Z,100191.72
2022-08-21T12:29:51.236Z,100188.22
2022-08-21T12:35:33.276Z,100188.91
2022-08-21T12:40:41.477Z,100187.19
2022-08-21T12:45:45.989Z,100183.41
2022-08-21T12:51:00.163Z,100181.88
2022-08-21T12:56:10.041Z,100188.88
2022-08-21T13:01:29.132Z,100186.19
2022-08-21T13:06:38.328Z,100169.91
2022-08-21T13:11:45.230Z,100172.16
2022-08-21T13:16:48.486Z,100167.34
2022-08-21T13:21:50.333Z,100169.59
2022-08-21T13:26:52.746Z,100167.47
2022-08-21T13:31:56.940Z,100171.25
2022-08-21T13:37:00.800Z,100164.63
2022-08-21T13:42:05.988Z,100166.41
2022-08-21T13:47:08.514Z,100159.28
2022-08-21T13:52:27.262Z,100166.84
2022-08-21T13:57:34.409Z,100174.94
2022-08-21T14:02:40.505Z,100160.56
2022-08-21T14:07:43.499Z,100159.50
2022-08-21T14:12:55.537Z,100164.97
2022-08-21T14:18:29.483Z,100158.66
2022-08-21T14:23:31.068Z,100164.13
2022-08-21T14:28:39.671Z,100164.47
2022-08-21T14:33:42.471Z,100152.00
2022-08-21T14:38:44.013Z,100155.84
2022-08-21T14:43:46.912Z,100157.94
2022-08-21T14:48:48.490Z,100154.34
2022-08-21T14:53:50.062Z,100160.56
2022-08-21T14:58:52.747Z,100151.19
2022-08-21T15:03:54.546Z,100156.16
2022-08-21T15:08:56.239Z,100161.34
2022-08-21T15:13:59.276Z,100154.22
2022-08-21T15:19:00.943Z,100156.16
2022-08-21T15:24:02.688Z,100155.69
2022-08-21T15:29:07.085Z,100154.50
2022-08-21T15:34:08.670Z,100152.03
2022-08-21T15:39:10.259Z,100159.84
2022-08-21T15:44:13.665Z,100158.53
2022-08-21T15:49:15.280Z,100157.97
2022-08-21T15:54:17.002Z,100154.97
2022-08-21T15:59:22.856Z,100149.03
2022-08-21T16:04:28.395Z,100147.84
2022-08-21T16:09:29.989Z,100143.31
2022-08-21T16:14:32.420Z,100143.09
2022-08-21T16:19:34.465Z,100146.31
2022-08-21T16:24:36.650Z,100138.91
2022-08-21T16:29:39.562Z,100152.88
2022-08-21T16:34:45.991Z,100153.50
2022-08-21T16:39:47.591Z,100150.00
2022-08-21T16:44:54.075Z,100145.47
2022-08-21T16:49:55.707Z,100146.22
2022-08-21T16:54:57.534Z,100140.00
2022-08-21T16:59:59.258Z,100133.78
2022-08-21T17:05:02.702Z,100138.94
2022-08-21T17:10:06.180Z,100131.00
2022-08-21T17:15:15.309Z,100133.34
2022-08-21T17:20:20.159Z,100128.97
2022-08-21T17:25:21.797Z,100135.91
2022-08-21T17:30:23.559Z,100133.03
2022-08-21T17:35:25.504Z,100134.53
2022-08-21T17:40:27.119Z,100133.19
2022-08-21T17:45:29.481Z,100138.09
2022-08-21T17:50:31.125Z,100145.41
2022-08-21T17:55:34.154Z,100148.56
2022-08-21T18:00:36.051Z,100145.09
2022-08-21T18:05:37.665Z,100143.50
2022-08-21T18:10:41.079Z,100141.22
2022-08-21T18:15:47.667Z,100152.22
2022-08-21T18:20:49.616Z,100151.22
2022-08-21T18:25:55.371Z,100153.56
2022-08-21T18:30:57.722Z,100147.31
2022-08-21T18:35:59.278Z,100155.16
2022-08-21T18:41:01.363Z,100150.00
2022-08-21T18:46:11.286Z,100154.59
2022-08-21T18:51:12.927Z,100156.16
2022-08-21T18:56:15.610Z,100162.66
2022-08-21T19:01:17.823Z,100162.66
2022-08-21T19:06:20.024Z,100179.41
2022-08-21T19:11:23.644Z,100179.06
2022-08-21T19:16:25.226Z,100175.75
2022-08-21T19:21:27.044Z,100184.59
2022-08-21T19:26:29.631Z,100174.97
2022-08-21T19:31:34.020Z,100182.06
2022-08-21T19:36:35.887Z,100185.84
2022-08-21T19:41:42.478Z,100180.88
2022-08-21T19:46:45.075Z,100178.31
2022-08-21T19:51:46.720Z,100174.78
2022-08-21T19:56:48.779Z,100180.84
2022-08-21T20:01:50.950Z,100178.75
2022-08-21T20:06:53.047Z,100178.13
2022-08-21T20:11:57.759Z,100177.50
2022-08-21T20:17:04.990Z,100169.97
2022-08-21T20:22:07.022Z,100167.91
2022-08-21T20:27:12.370Z,100163.31
2022-08-21T20:32:15.449Z,100159.97
2022-08-21T20:37:35.663Z,100176.03
2022-08-21T20:42:44.926Z,100172.47
2022-08-21T20:47:47.147Z,100167.69
2022-08-21T20:53:00.912Z,100166.41
2022-08-21T20:58:07.861Z,100160.34
2022-08-21T21:03:15.073Z,100162.38
2022-08-21T21:08:30.068Z,100158.59
2022-08-21T21:13:49.461Z,100166.34
2022-08-21T21:19:36.907Z,100176.31
2022-08-21T21:24:45.210Z,100173.59
2022-08-21T21:30:06.063Z,100168.53
2022-08-21T21:35:15.881Z,100180.25
2022-08-21T21:40:48.155Z,100173.59
2022-08-21T21:46:04.506Z,100169.53
2022-08-21T21:51:26.039Z,100185.81
2022-08-21T21:56:36.562Z,100181.81
2022-08-21T22:02:02.177Z,100192.25
2022-08-21T22:07:04.992Z,100187.97
2022-08-21T22:12:18.836Z,100192.34
2022-08-21T22:17:32.095Z,100194.16
2022-08-21T22:22:34.617Z,100195.50
2022-08-21T22:27:38.725Z,100190.91
2022-08-21T22:32:47.280Z,100183.94
2022-08-21T22:37:55.145Z,100187.31
2022-08-21T22:43:16.188Z,100178.16
2022-08-21T22:53:43.495Z,100196.81
2022-08-21T22:59:06.095Z,100182.59
2022-08-21T23:04:22.228Z,100188.34
2022-08-21T23:09:35.893Z,100171.66
2022-08-21T23:14:37.455Z,100183.41
2022-08-21T23:19:38.948Z,100184.22
2022-08-21T23:24:54.881Z,100183.16
2022-08-21T23:30:08.122Z,100188.75
2022-08-21T23:35:17.853Z,100188.25
2022-08-21T23:40:32.105Z,100182.69
2022-08-21T23:46:00.061Z,100189.41
2022-08-21T23:51:08.637Z,100190.28
2022-08-21T23:56:20.575Z,100176.59
